createdAt,value
2019-04-04T00:01:02.405Z,52.78
2019-04-04T00:03:33.618Z,52.67
2019-04-04T00:06:05.965Z,52.71
2019-04-04T00:08:37.173Z,52.57
2019-04-04T00:11:08.468Z,52.52
2019-04-04T00:13:40.038Z,51.93
2019-04-04T00:16:15.612Z,51.47
2019-04-04T00:18:45.519Z,52.05
2019-04-04T00:21:16.712Z,52.96
2019-04-04T00:23:47.846Z,53.16
2019-04-04T00:26:19.089Z,53.69
2019-04-04T00:28:51.584Z,53.68
2019-04-04T00:31:23.159Z,53.56
2019-04-04T00:33:55.836Z,53.41
2019-04-04T00:36:27.148Z,53.46
2019-04-04T00:38:58.256Z,53.78
2019-04-04T00:41:29.415Z,54.37
2019-04-04T00:44:02.332Z,54.42
2019-04-04T00:46:33.848Z,54.49
2019-04-04T00:49:05.451Z,54.60
2019-04-04T00:51:38.689Z,54.58
2019-04-04T00:54:09.465Z,54.59
2019-04-04T00:56:40.559Z,54.48
2019-04-04T00:59:12.028Z,54.65
2019-04-04T01:01:43.124Z,54.41
2019-04-04T01:04:14.329Z,54.43
2019-04-04T01:06:45.479Z,54.41
2019-04-04T01:09:17.037Z,54.60
2019-04-04T01:11:50.974Z,54.75
2019-04-04T01:14:21.110Z,55.10
2019-04-04T01:16:52.271Z,55.55
2019-04-04T01:19:24.068Z,55.92
2019-04-04T01:21:55.250Z,55.66
2019-04-04T01:24:28.847Z,55.90
2019-04-04T01:27:28.357Z,56.06
2019-04-04T01:30:00.992Z,57.94
2019-04-04T01:32:33.162Z,58.51
2019-04-04T01:35:04.481Z,58.38
2019-04-04T01:37:35.867Z,58.21
2019-04-04T01:40:07.124Z,58.68
2019-04-04T01:42:38.939Z,58.57
2019-04-04T01:45:12.868Z,59.31
2019-04-04T01:47:43.679Z,59.48
2019-04-04T01:50:14.862Z,59.40
2019-04-04T01:52:46.236Z,59.28
2019-04-04T01:55:17.495Z,59.30
2019-04-04T01:57:48.679Z,59.11
2019-04-04T02:00:19.871Z,58.76
2019-04-04T02:02:51.832Z,58.39
2019-04-04T02:05:26.812Z,58.41
2019-04-04T02:07:56.744Z,58.16
2019-04-04T02:10:28.298Z,58.70
2019-04-04T02:12:59.516Z,59.12
2019-04-04T02:15:30.726Z,59.40
2019-04-04T02:18:01.900Z,58.87
2019-04-04T02:20:33.234Z,58.78
2019-04-04T02:23:04.410Z,58.89
2019-04-04T02:25:35.600Z,60.21
2019-04-04T02:28:06.924Z,60.49
2019-04-04T02:30:39.720Z,60.71
2019-04-04T02:33:10.898Z,61.50
2019-04-04T02:35:43.727Z,62.05
2019-04-04T02:38:15.022Z,62.19
2019-04-04T02:41:04.086Z,62.41
2019-04-04T02:43:36.521Z,61.29
2019-04-04T02:46:44.741Z,60.42
2019-04-04T02:49:07.127Z,60.40
2019-04-04T02:51:41.166Z,60.73
2019-04-04T02:54:11.402Z,60.65
2019-04-04T02:56:43.046Z,60.68
2019-04-04T02:59:17.240Z,60.90
2019-04-04T03:01:47.192Z,61.27
2019-04-04T03:04:38.278Z,61.23
2019-04-04T03:07:10.099Z,60.68
2019-04-04T03:10:35.887Z,61.05
2019-04-04T03:13:55.383Z,62.55
2019-04-04T03:16:27.697Z,61.71
2019-04-04T03:18:58.876Z,61.83
2019-04-04T03:25:14.710Z,61.91
2019-04-04T03:27:45.865Z,61.35
2019-04-04T03:30:17.748Z,60.99
2019-04-04T03:32:54.327Z,61.55
2019-04-04T03:35:28.069Z,61.69
2019-04-04T03:37:54.848Z,62.20
2019-04-04T03:40:43.775Z,62.34
2019-04-04T03:43:07.356Z,62.19
2019-04-04T03:45:38.686Z,62.20
2019-04-04T03:48:18.800Z,62.23
2019-04-04T03:51:05.056Z,62.33
2019-04-04T03:53:57.482Z,62.40
2019-04-04T03:56:33.266Z,62.23
2019-04-04T03:59:05.703Z,62.06
2019-04-04T04:02:08.686Z,61.96
2019-04-04T04:04:39.883Z,62.27
2019-04-04T04:07:20.420Z,62.78
2019-04-04T04:09:51.658Z,62.87
2019-04-04T04:12:22.960Z,63.07
2019-04-04T04:14:55.385Z,63.51
2019-04-04T04:18:04.380Z,64.45
2019-04-04T04:20:37.529Z,64.37
2019-04-04T04:23:08.447Z,63.73
2019-04-04T04:25:44.956Z,63.81
2019-04-04T04:28:19.777Z,63.39
2019-04-04T04:30:49.023Z,63.48
2019-04-04T04:33:20.274Z,62.82
2019-04-04T04:35:51.544Z,62.50
2019-04-04T04:38:25.492Z,62.57
2019-04-04T04:41:04.962Z,62.74
2019-04-04T04:43:41.334Z,62.67
2019-04-04T04:46:33.288Z,62.58
2019-04-04T04:49:04.485Z,62.60
2019-04-04T04:51:36.247Z,63.16
2019-04-04T04:54:52.339Z,63.10
2019-04-04T04:57:38.218Z,63.20
2019-04-04T05:00:41.654Z,63.71
2019-04-04T05:03:32.421Z,64.11
2019-04-04T05:05:57.136Z,64.18
2019-04-04T05:08:31.886Z,64.10
2019-04-04T05:11:16.800Z,63.68
2019-04-04T05:14:07.276Z,63.42
2019-04-04T05:16:56.270Z,63.46
2019-04-04T05:19:27.613Z,63.24
2019-04-04T05:21:58.818Z,62.85
2019-04-04T05:24:30.054Z,63.03
2019-04-04T05:27:20.232Z,62.34
2019-04-04T05:29:51.377Z,61.95
2019-04-04T05:32:23.153Z,62.02
2019-04-04T05:35:10.657Z,61.65
2019-04-04T05:37:42.023Z,61.87
2019-04-04T05:43:28.489Z,61.12
2019-04-04T05:46:08.640Z,61.78
2019-04-04T05:48:39.856Z,61.80
2019-04-04T05:51:11.189Z,62.45
2019-04-04T05:54:13.597Z,62.38
2019-04-04T05:56:48.777Z,62.54
2019-04-04T06:02:14.431Z,62.62
2019-04-04T06:08:32.143Z,63.44
2019-04-04T06:11:24.997Z,64.12
2019-04-04T06:14:00.670Z,64.18
2019-04-04T06:16:43.164Z,63.94
2019-04-04T06:19:14.985Z,63.73
2019-04-04T06:21:49.619Z,63.44
2019-04-04T06:24:19.282Z,63.61
2019-04-04T06:27:48.181Z,63.94
2019-04-04T06:30:25.098Z,64.02
2019-04-04T06:33:19.135Z,63.89
2019-04-04T06:35:58.287Z,64.01
2019-04-04T06:38:32.140Z,64.13
2019-04-04T06:41:03.652Z,63.85
2019-04-04T06:43:34.892Z,63.37
2019-04-04T06:46:26.131Z,62.85
2019-04-04T06:48:57.328Z,62.88
2019-04-04T06:51:28.538Z,62.10
2019-04-04T06:54:01.386Z,62.18
2019-04-04T06:56:33.009Z,62.19
2019-04-04T06:59:04.237Z,61.82
2019-04-04T07:01:35.468Z,61.31
2019-04-04T07:04:06.657Z,60.96
2019-04-04T07:06:37.848Z,60.73
2019-04-04T07:09:09.332Z,60.25
2019-04-04T07:11:40.656Z,60.37
2019-04-04T07:14:11.842Z,60.13
2019-04-04T07:16:43.091Z,60.13
2019-04-04T07:19:15.122Z,59.69
2019-04-04T07:21:46.459Z,59.43
2019-04-04T07:24:17.675Z,59.07
2019-04-04T07:26:49.344Z,57.49
2019-04-04T07:29:20.515Z,56.32
2019-04-04T07:31:52.438Z,55.16
2019-04-04T07:34:24.186Z,55.40
2019-04-04T07:36:55.338Z,55.34
2019-04-04T07:39:26.605Z,55.38
2019-04-04T07:41:57.819Z,55.15
2019-04-04T07:44:28.999Z,54.84
2019-04-04T07:47:00.213Z,55.69
2019-04-04T07:49:31.505Z,56.36
2019-04-04T07:52:02.774Z,57.42
2019-04-04T07:54:34.020Z,57.93
2019-04-04T07:57:05.247Z,58.44
2019-04-04T07:59:36.418Z,58.18
2019-04-04T08:02:07.652Z,57.99
2019-04-04T08:04:39.013Z,58.72
2019-04-04T08:07:10.248Z,57.53
2019-04-04T08:09:41.482Z,57.50
2019-04-04T08:12:12.787Z,56.93
2019-04-04T08:14:44.015Z,54.94
2019-04-04T08:17:15.290Z,53.49
2019-04-04T08:19:58.909Z,51.91
2019-04-04T08:22:19.682Z,50.93
2019-04-04T08:24:52.175Z,49.55
2019-04-04T08:27:23.478Z,49.06
2019-04-04T08:29:54.718Z,46.53
2019-04-04T08:32:25.962Z,44.33
2019-04-04T08:34:57.201Z,46.13
2019-04-04T08:37:28.398Z,45.43
2019-04-04T08:39:59.603Z,46.64
2019-04-04T08:42:30.904Z,48.22
2019-04-04T08:45:02.125Z,48.53
2019-04-04T08:47:33.360Z,48.78
2019-04-04T08:50:04.837Z,48.59
2019-04-04T08:52:36.075Z,48.84
2019-04-04T08:55:07.713Z,49.78
2019-04-04T08:57:38.932Z,49.36
2019-04-04T09:00:10.186Z,48.28
2019-04-04T09:02:41.669Z,48.76
2019-04-04T09:05:12.931Z,48.23
2019-04-04T09:07:44.105Z,48.29
2019-04-04T09:10:15.408Z,48.39
2019-04-04T09:12:47.534Z,48.55
2019-04-04T09:15:18.780Z,49.10
2019-04-04T09:17:49.980Z,49.15
2019-04-04T09:20:21.210Z,49.08
2019-04-04T09:22:52.446Z,49.13
2019-04-04T09:25:23.629Z,49.44
2019-04-04T09:27:54.862Z,50.24
2019-04-04T09:30:26.089Z,50.00
2019-04-04T09:32:58.625Z,49.21
2019-04-04T09:35:29.819Z,46.58
2019-04-04T09:38:01.051Z,47.31
2019-04-04T09:40:32.307Z,45.56
2019-04-04T09:43:03.702Z,45.62
2019-04-04T09:45:35.087Z,45.38
2019-04-04T09:48:06.361Z,46.76
2019-04-04T09:50:37.536Z,47.91
2019-04-04T09:53:08.783Z,48.30
2019-04-04T09:55:39.975Z,47.37
2019-04-04T09:58:11.211Z,46.66
2019-04-04T10:00:42.566Z,47.23
2019-04-04T10:03:15.150Z,46.43
2019-04-04T10:05:46.381Z,45.87
2019-04-04T10:08:17.586Z,44.47
2019-04-04T10:10:48.842Z,45.46
2019-04-04T10:13:20.083Z,43.16
2019-04-04T10:15:51.328Z,42.91
2019-04-04T10:18:22.992Z,44.67
2019-04-04T10:20:55.242Z,44.76
2019-04-04T10:23:26.429Z,45.06
2019-04-04T10:25:57.656Z,43.05
2019-04-04T10:28:28.906Z,43.37
2019-04-04T10:31:00.134Z,44.48
2019-04-04T10:33:31.377Z,46.75
2019-04-04T10:36:02.578Z,46.60
2019-04-04T10:38:33.886Z,45.67
2019-04-04T10:41:05.090Z,46.25
2019-04-04T10:43:36.364Z,45.88
2019-04-04T10:46:07.562Z,44.57
2019-04-04T10:48:38.767Z,45.18
2019-04-04T10:51:09.979Z,43.96
2019-04-04T10:53:41.570Z,45.64
2019-04-04T10:56:12.794Z,44.99
2019-04-04T10:58:44.021Z,46.04
2019-04-04T11:01:15.349Z,46.65
2019-04-04T11:03:46.552Z,45.30
2019-04-04T11:06:17.787Z,45.32
2019-04-04T11:08:49.008Z,45.00
2019-04-04T11:11:20.262Z,44.94
2019-04-04T11:13:51.465Z,45.85
2019-04-04T11:16:30.157Z,44.94
2019-04-04T11:18:56.080Z,45.65
2019-04-04T11:21:27.402Z,45.87
2019-04-04T11:23:58.620Z,45.37
2019-04-04T11:26:29.922Z,45.31
2019-04-04T11:29:01.120Z,44.37
2019-04-04T11:31:32.452Z,44.46
2019-04-04T11:34:03.654Z,44.05
2019-04-04T11:36:34.871Z,44.75
2019-04-04T11:39:07.668Z,44.52
2019-04-04T11:41:38.860Z,43.62
2019-04-04T11:44:10.190Z,44.75
2019-04-04T11:46:41.369Z,45.19
2019-04-04T11:49:12.572Z,45.25
2019-04-04T11:51:43.794Z,45.17
2019-04-04T11:54:15.109Z,47.05
2019-04-04T11:56:46.309Z,48.45
2019-04-04T11:59:17.501Z,48.84
2019-04-04T12:01:48.931Z,48.49
2019-04-04T12:04:20.139Z,49.12
2019-04-04T12:06:51.619Z,51.00
2019-04-04T12:09:22.881Z,51.45
2019-04-04T12:11:54.157Z,50.66
2019-04-04T12:14:25.340Z,52.56
2019-04-04T12:16:56.528Z,53.25
2019-04-04T12:19:27.809Z,53.94
2019-04-04T12:22:00.047Z,54.69
2019-04-04T12:24:31.391Z,55.06
2019-04-04T12:27:02.837Z,55.50
2019-04-04T12:29:34.112Z,56.85
2019-04-04T12:32:05.327Z,56.22
2019-04-04T12:34:36.528Z,55.26
2019-04-04T12:37:07.975Z,55.56
2019-04-04T12:39:39.157Z,56.10
2019-04-04T12:42:11.260Z,56.99
2019-04-04T12:44:43.946Z,57.46
2019-04-04T12:47:15.154Z,56.66
2019-04-04T12:49:46.380Z,56.80
2019-04-04T12:52:17.642Z,57.52
2019-04-04T12:54:48.818Z,57.57
2019-04-04T12:57:20.337Z,58.47
2019-04-04T12:59:51.699Z,57.64
2019-04-04T13:02:22.870Z,57.94
2019-04-04T13:04:54.227Z,59.02
2019-04-04T13:07:25.413Z,59.14
2019-04-04T13:09:56.636Z,59.15
2019-04-04T13:12:27.836Z,58.31
2019-04-04T13:14:59.160Z,58.54
2019-04-04T13:17:30.517Z,57.99
2019-04-04T13:20:02.139Z,58.53
2019-04-04T13:22:33.652Z,58.81
2019-04-04T13:25:05.432Z,58.12
2019-04-04T13:27:36.695Z,58.11
2019-04-04T13:30:10.989Z,57.69
2019-04-04T13:32:42.160Z,58.98
2019-04-04T13:35:13.385Z,59.54
2019-04-04T13:37:44.619Z,58.75
2019-04-04T13:40:15.802Z,60.87
2019-04-04T13:42:47.028Z,60.32
2019-04-04T13:45:18.333Z,59.76
2019-04-04T13:47:49.552Z,59.69
2019-04-04T13:50:20.758Z,60.19
2019-04-04T13:52:51.949Z,61.60
2019-04-04T13:55:25.160Z,59.58
2019-04-04T13:57:56.498Z,59.51
2019-04-04T14:00:27.681Z,59.91
2019-04-04T14:02:58.911Z,59.54
2019-04-04T14:05:30.283Z,59.27
2019-04-04T14:08:01.513Z,60.41
2019-04-04T14:10:33.502Z,59.58
2019-04-04T14:13:04.763Z,59.17
2019-04-04T14:15:37.108Z,59.63
2019-04-04T14:18:23.747Z,60.16
2019-04-04T14:21:03.345Z,60.27
2019-04-04T14:23:29.283Z,61.25
2019-04-04T14:26:00.747Z,60.18
2019-04-04T14:28:32.018Z,59.78
2019-04-04T14:31:03.193Z,60.37
2019-04-04T14:33:34.392Z,59.68
2019-04-04T14:36:06.555Z,59.85
2019-04-04T14:38:37.778Z,60.51
2019-04-04T14:41:11.387Z,59.92
2019-04-04T14:43:41.867Z,60.14
2019-04-04T14:46:13.158Z,59.67
2019-04-04T14:48:44.560Z,60.28
2019-04-04T14:51:15.874Z,59.93
2019-04-04T14:53:47.166Z,60.47
2019-04-04T14:56:18.474Z,59.92
2019-04-04T14:58:49.679Z,59.86
2019-04-04T15:01:20.998Z,61.40
2019-04-04T15:03:52.186Z,60.41
2019-04-04T15:06:23.766Z,61.00
2019-04-04T15:08:55.084Z,61.08
2019-04-04T15:11:26.395Z,61.93
2019-04-04T15:13:57.707Z,60.46
2019-04-04T15:16:28.909Z,60.21
2019-04-04T15:19:00.155Z,61.26
2019-04-04T15:21:31.338Z,60.50
2019-04-04T15:24:02.566Z,61.36
2019-04-04T15:26:34.815Z,61.86
2019-04-04T15:29:06.069Z,60.80
2019-04-04T15:31:37.248Z,62.29
2019-04-04T15:34:08.759Z,61.85
2019-04-04T15:36:39.995Z,62.78
2019-04-04T15:39:11.166Z,62.49
2019-04-04T15:41:42.398Z,62.91
2019-04-04T15:44:13.615Z,61.84
2019-04-04T15:46:45.062Z,62.57
2019-04-04T15:49:16.384Z,61.82
2019-04-04T15:51:47.894Z,62.24
2019-04-04T15:54:19.123Z,61.40
2019-04-04T15:56:50.480Z,61.25
2019-04-04T15:59:21.724Z,61.93
2019-04-04T16:01:53.093Z,62.44
2019-04-04T16:04:24.391Z,63.62
2019-04-04T16:06:55.615Z,62.75
2019-04-04T16:09:26.882Z,63.96
2019-04-04T16:11:58.443Z,63.01
2019-04-04T16:14:29.728Z,64.40
2019-04-04T16:17:00.962Z,64.63
2019-04-04T16:19:32.142Z,64.29
2019-04-04T16:22:04.669Z,64.65
2019-04-04T16:24:37.544Z,64.73
2019-04-04T16:27:08.706Z,64.50
2019-04-04T16:29:39.940Z,65.51
2019-04-04T16:32:11.188Z,63.72
2019-04-04T16:34:42.490Z,63.92
2019-04-04T16:37:14.046Z,64.62
2019-04-04T16:39:45.284Z,64.33
2019-04-04T16:42:16.465Z,63.11
2019-04-04T16:44:47.764Z,63.82
2019-04-04T16:47:18.942Z,63.84
2019-04-04T16:49:50.232Z,64.26
2019-04-04T16:52:21.452Z,63.85
2019-04-04T16:54:53.843Z,63.35
2019-04-04T16:57:25.217Z,63.85
2019-04-04T16:59:56.481Z,64.85
2019-04-04T17:02:27.672Z,64.91
2019-04-04T17:04:58.924Z,64.58
2019-04-04T17:07:30.434Z,64.72
2019-04-04T17:10:01.618Z,64.35
2019-04-04T17:12:33.047Z,64.42
2019-04-04T17:15:04.488Z,64.56
2019-04-04T17:17:36.713Z,64.69
2019-04-04T17:20:07.951Z,64.36
2019-04-04T17:22:40.648Z,64.55
2019-04-04T17:25:11.865Z,65.62
2019-04-04T17:27:43.062Z,64.65
2019-04-04T17:30:14.221Z,64.76
2019-04-04T17:32:48.639Z,64.23
2019-04-04T17:35:18.890Z,65.10
2019-04-04T17:37:50.351Z,65.56
2019-04-04T17:40:21.807Z,64.90
2019-04-04T17:42:53.290Z,64.03
2019-04-04T17:45:25.341Z,65.04
2019-04-04T17:47:56.891Z,64.82
2019-04-04T17:50:28.262Z,64.65
2019-04-04T17:52:59.452Z,63.91
2019-04-04T17:55:31.091Z,64.19
2019-04-04T17:58:02.508Z,64.42
2019-04-04T18:00:34.867Z,63.91
2019-04-04T18:03:06.041Z,63.13
2019-04-04T18:05:37.325Z,63.47
2019-04-04T18:08:08.548Z,64.25
2019-04-04T18:10:39.742Z,64.49
2019-04-04T18:13:10.913Z,64.08
2019-04-04T18:15:42.112Z,64.43
2019-04-04T18:18:13.278Z,63.56
2019-04-04T18:20:44.549Z,64.59
2019-04-04T18:23:16.024Z,64.13
2019-04-04T18:25:47.197Z,63.33
2019-04-04T18:28:18.362Z,63.16
2019-04-04T18:30:49.607Z,63.92
2019-04-04T18:33:21.967Z,63.43
2019-04-04T18:35:53.168Z,63.17
2019-04-04T18:38:25.060Z,63.10
2019-04-04T18:40:56.278Z,64.01
2019-04-04T18:43:27.575Z,63.83
2019-04-04T18:45:58.766Z,64.14
2019-04-04T18:48:30.047Z,63.77
2019-04-04T18:51:01.272Z,63.96
2019-04-04T18:53:33.020Z,64.71
2019-04-04T18:56:04.258Z,64.91
2019-04-04T18:58:35.477Z,65.04
2019-04-04T19:01:06.707Z,65.23
2019-04-04T19:03:38.026Z,65.63
2019-04-04T19:06:09.225Z,65.85
2019-04-04T19:08:40.494Z,66.10
2019-04-04T19:11:11.716Z,66.88
2019-04-04T19:13:44.407Z,66.37
2019-04-04T19:16:16.058Z,66.19
2019-04-04T19:18:47.273Z,66.17
2019-04-04T19:21:18.865Z,66.59
2019-04-04T19:23:50.756Z,66.78
2019-04-04T19:26:23.891Z,66.75
2019-04-04T19:28:55.144Z,67.05
2019-04-04T19:31:26.366Z,66.92
2019-04-04T19:33:57.539Z,67.10
2019-04-04T19:36:28.790Z,67.34
2019-04-04T19:39:00.108Z,67.18
2019-04-04T19:41:31.810Z,67.39
2019-04-04T19:44:03.254Z,67.33
2019-04-04T19:46:37.152Z,67.25
2019-04-04T19:49:08.187Z,66.98
2019-04-04T19:51:39.374Z,67.44
2019-04-04T19:54:10.563Z,67.57
2019-04-04T19:56:41.804Z,66.94
2019-04-04T19:59:13.096Z,67.26
2019-04-04T20:01:44.629Z,67.44
2019-04-04T20:04:15.844Z,66.92
2019-04-04T20:06:47.057Z,67.90
2019-04-04T20:09:18.257Z,67.51
2019-04-04T20:11:50.049Z,67.38
2019-04-04T20:14:21.346Z,66.95
2019-04-04T20:16:53.531Z,66.85
2019-04-04T20:19:24.728Z,67.07
2019-04-04T20:21:57.547Z,67.16
2019-04-04T20:24:30.822Z,67.82
2019-04-04T20:27:06.284Z,68.18
2019-04-04T20:29:40.900Z,68.76
2019-04-04T20:32:14.944Z,69.16
2019-04-04T20:34:48.069Z,69.30
2019-04-04T20:37:22.516Z,68.88
2019-04-04T20:39:55.779Z,68.90
2019-04-04T20:42:31.647Z,69.24
2019-04-04T20:45:02.783Z,69.14
2019-04-04T20:47:38.584Z,69.64
2019-04-04T20:50:12.841Z,69.98
2019-04-04T20:52:44.165Z,69.67
2019-04-04T20:55:15.703Z,69.78
2019-04-04T20:57:46.952Z,69.16
2019-04-04T21:00:18.307Z,68.76
2019-04-04T21:02:49.518Z,68.23
2019-04-04T21:05:22.850Z,66.79
2019-04-04T21:07:54.113Z,67.52
2019-04-04T21:10:25.582Z,66.98
2019-04-04T21:13:02.488Z,67.17
2019-04-04T21:15:35.447Z,67.44
2019-04-04T21:18:07.205Z,67.07
2019-04-04T21:20:39.839Z,67.61
2019-04-04T21:23:11.459Z,68.01
2019-04-04T21:25:42.657Z,68.47
2019-04-04T21:28:14.326Z,68.35
2019-04-04T21:30:47.129Z,68.60
2019-04-04T21:33:18.364Z,68.78
2019-04-04T21:35:49.563Z,68.77
2019-04-04T21:38:20.738Z,68.35
2019-04-04T21:40:52.305Z,68.80
2019-04-04T21:43:24.810Z,69.18
2019-04-04T21:45:56.401Z,70.19
2019-04-04T21:48:27.714Z,70.12
2019-04-04T21:50:59.160Z,69.58
2019-04-04T21:53:31.188Z,69.20
2019-04-04T21:56:02.376Z,69.13
2019-04-04T21:58:33.575Z,69.28
2019-04-04T22:01:04.764Z,69.41
2019-04-04T22:03:36.775Z,67.59
2019-04-04T22:06:08.066Z,66.33
2019-04-04T22:08:39.388Z,66.44
2019-04-04T22:11:10.660Z,66.38
2019-04-04T22:13:41.908Z,67.17
2019-04-04T22:16:13.543Z,66.83
2019-04-04T22:18:44.725Z,66.72
2019-04-04T22:21:15.908Z,67.14
2019-04-04T22:23:47.096Z,67.86
2019-04-04T22:26:18.262Z,68.46
2019-04-04T22:28:50.461Z,68.32
2019-04-04T22:31:22.227Z,69.08
2019-04-04T22:33:53.411Z,68.36
2019-04-04T22:36:25.947Z,68.03
2019-04-04T22:38:57.119Z,68.12
2019-04-04T22:41:28.650Z,68.46
2019-04-04T22:44:03.754Z,68.31
2019-04-04T22:46:32.724Z,68.86
2019-04-04T22:49:03.919Z,68.82
2019-04-04T22:51:35.148Z,69.15
2019-04-04T22:54:06.367Z,69.38
2019-04-04T22:56:37.563Z,69.27
2019-04-04T22:59:08.757Z,69.05
2019-04-04T23:01:40.424Z,69.54
2019-04-04T23:04:11.652Z,69.70
2019-04-04T23:06:42.857Z,69.75
2019-04-04T23:09:14.487Z,70.07
2019-04-04T23:11:45.714Z,69.90
2019-04-04T23:14:16.905Z,69.65
2019-04-04T23:17:01.871Z,69.45
2019-04-04T23:19:33.345Z,69.80
2019-04-04T23:22:04.975Z,69.99
2019-04-04T23:24:36.193Z,70.79
2019-04-04T23:27:07.421Z,71.12
2019-04-04T23:29:42.502Z,70.86
2019-04-04T23:32:12.620Z,70.65
2019-04-04T23:34:43.861Z,70.33
2019-04-04T23:37:15.281Z,70.16
2019-04-04T23:39:46.565Z,69.96
2019-04-04T23:42:17.769Z,68.43
2019-04-04T23:47:22.233Z,67.59
2019-04-04T23:49:53.553Z,67.81
2019-04-04T23:52:26.591Z,67.00
2019-04-04T23:54:57.915Z,67.63
2019-04-04T23:57:29.343Z,68.35
